Time;durP1;ratioP1;P1;durP2;ratioP2;P2;SDS_P1;SDS_P2;PMS_P1;PMS_P2;Temp;Humidity;BMP_temperature;BMP_pressure;BME280_temperature;BME280_humidity;BME280_pressure;Samples;Min_cycle;Max_cycle;Signal;HPM_P1;HPM_P2
2023/03/31 00:00:56;;;;;;;7.78;2.60;;;;;;;9.46;100.00;100380.19;5031992;28;20405;-80
2023/03/31 00:03:23;;;;;;;13.55;3.03;;;;;;;9.40;100.00;100364.72;5032247;28;20029;-80
2023/03/31 00:05:59;;;;;;;9.40;2.53;;;;;;;9.35;100.00;100344.06;5032495;28;20032;-82
2023/03/31 00:08:28;;;;;;;8.82;2.72;;;;;;;9.36;100.00;100339.69;5017023;28;20069;-82
2023/03/31 00:11:00;;;;;;;6.65;2.60;;;;;;;9.38;100.00;100343.97;5032075;28;20405;-82
2023/03/31 00:13:26;;;;;;;10.32;2.72;;;;;;;9.29;100.00;100325.16;5029441;28;20026;-81
2023/03/31 00:16:00;;;;;;;8.85;2.80;;;;;;;9.29;100.00;100320.78;5031109;28;20037;-81
2023/03/31 00:18:26;;;;;;;8.93;2.67;;;;;;;9.33;100.00;100327.63;5032591;28;20025;-81
2023/03/31 00:20:53;;;;;;;11.00;3.53;;;;;;;9.33;100.00;100318.97;5034931;28;20709;-81
2023/03/31 00:23:26;;;;;;;9.02;2.97;;;;;;;9.17;100.00;100296.84;5036546;28;20021;-81
2023/03/31 00:25:52;;;;;;;;;;;;;;;9.24;100.00;100311.41;5036736;28;20430;-81
2023/03/31 00:28:18;;;;;;;8.57;2.05;;;;;;;9.08;100.00;100283.19;5035688;28;19975;-81
2023/03/31 00:30:43;;;;;;;9.82;2.70;;;;;;;9.13;100.00;100301.28;5035916;28;20032;-81
2023/03/31 00:33:08;;;;;;;5.25;2.15;;;;;;;9.08;100.00;100284.94;5036394;28;20017;-80
2023/03/31 00:35:37;;;;;;;10.45;2.83;;;;;;;9.07;100.00;100288.44;5035297;28;20112;-81
2023/03/31 00:38:04;;;;;;;11.50;2.72;;;;;;;9.07;100.00;100283.25;5036120;28;20102;-82
2023/03/31 00:40:33;;;;;;;11.40;3.28;;;;;;;9.04;100.00;100273.75;5036161;28;20029;-81
2023/03/31 00:42:58;;;;;;;11.73;2.33;;;;;;;9.03;100.00;100276.41;5035180;28;20026;-81
2023/03/31 00:45:28;;;;;;;14.02;3.00;;;;;;;9.02;100.00;100267.75;5036187;28;20083;-81
2023/03/31 00:48:02;;;;;;;8.27;2.70;;;;;;;9.01;100.00;100260.84;5035953;28;20076;-81
2023/03/31 00:50:36;;;;;;;8.60;2.50;;;;;;;8.97;100.00;100261.81;5034822;28;20021;-81
2023/03/31 00:53:04;;;;;;;;;;;;;;;9.01;100.00;100258.25;5036408;28;20030;-81
2023/03/31 00:55:35;;;;;;;11.00;2.80;;;;;;;9.04;100.00;100258.16;5035411;28;20032;-81
2023/03/31 00:58:03;;;;;;;7.90;2.42;;;;;;;9.04;100.00;100244.31;5035087;28;20026;-81
2023/03/31 01:00:29;;;;;;;12.50;3.03;;;;;;;9.04;100.00;100249.50;5035369;28;20552;-81
2023/03/31 01:02:58;;;;;;;8.82;2.60;;;;;;;9.05;100.00;100249.47;5035149;28;20120;-81
2023/03/31 01:05:41;;;;;;;8.15;2.50;;;;;;;9.07;100.00;100250.28;5035288;28;20030;-81
2023/03/31 01:08:07;;;;;;;15.52;2.78;;;;;;;9.10;100.00;100238.97;5035854;28;20037;-82
2023/03/31 01:10:40;;;;;;;6.25;1.85;;;;;;;9.12;100.00;100234.53;5034564;28;20025;-80
2023/03/31 01:13:09;;;;;;;11.33;2.40;;;;;;;9.11;100.00;100225.91;5035807;28;20036;-81
2023/03/31 01:15:35;;;;;;;8.45;2.55;;;;;;;9.14;100.00;100228.41;5048983;28;20061;-81
2023/03/31 01:18:02;;;;;;;11.35;2.58;;;;;;;9.15;100.00;100221.47;5034850;28;20056;-81
2023/03/31 01:20:30;;;;;;;10.77;2.38;;;;;;;9.19;100.00;100217.03;5035367;28;20052;-81
2023/03/31 01:23:22;;;;;;;9.95;2.85;;;;;;;9.18;100.00;100208.38;5035332;28;20018;-82
2023/03/31 01:26:08;;;;;;;7.93;2.20;;;;;;;9.18;100.00;100210.13;5034407;28;20453;-81
2023/03/31 01:28:47;;;;;;;5.68;2.53;;;;;;;9.17;100.00;100200.63;5035342;28;20056;-82
2023/03/31 01:31:42;;;;;;;15.57;2.75;;;;;;;9.13;100.00;100192.06;5034034;28;20091;-82
2023/03/31 01:34:25;;;;;;;12.93;2.65;;;;;;;9.14;100.00;100196.38;5034924;28;20112;-82
2023/03/31 01:37:22;;;;;;;14.73;2.67;;;;;;;9.13;100.00;100195.50;5043416;28;20112;-82
2023/03/31 01:39:57;;;;;;;13.10;2.58;;;;;;;9.14;100.00;100191.16;5049403;28;20036;-83
2023/03/31 01:42:43;;;;;;;11.48;3.20;;;;;;;9.00;100.00;100157.75;5034792;28;20377;-82
2023/03/31 01:45:24;;;;;;;11.98;3.17;;;;;;;9.16;100.00;100172.94;5021106;28;20026;-84
2023/03/31 01:48:01;;;;;;;14.07;3.63;;;;;;;9.11;100.00;100155.69;5034467;28;20412;-85
2023/03/31 01:50:36;;;;;;;9.77;2.65;;;;;;;9.06;100.00;100146.34;5034961;28;20096;-86
2023/03/31 01:53:32;;;;;;;15.98;3.20;;;;;;;9.10;100.00;100130.59;5033985;28;20470;-89
2023/03/31 01:56:18;;;;;;;14.68;3.47;;;;;;;9.05;100.00;100124.66;5035006;28;20037;-86
2023/03/31 01:59:00;;;;;;;16.05;3.22;;;;;;;8.99;100.00;100110.97;5034904;28;20048;-86
2023/03/31 02:01:37;;;;;;;16.20;3.38;;;;;;;9.10;100.00;100115.00;5033941;28;20026;-86
2023/03/31 02:04:11;;;;;;;13.40;3.30;;;;;;;9.03;100.00;100105.66;5034933;28;20048;-86
2023/03/31 02:06:41;;;;;;;18.73;3.53;;;;;;;9.10;100.00;100104.59;5033761;28;20100;-86
2023/03/31 02:09:15;;;;;;;13.82;2.95;;;;;;;9.08;100.00;100095.97;5034524;28;20041;-87
2023/03/31 02:11:41;;;;;;;;;;;;;;;9.07;100.00;100096.03;5034831;28;20029;-87
2023/03/31 02:14:10;;;;;;;13.48;3.30;;;;;;;9.11;100.00;100077.69;5033696;28;20361;-87
2023/03/31 02:16:40;;;;;;;14.50;3.17;;;;;;;9.10;100.00;100064.72;5024657;28;20084;-86
2023/03/31 02:19:07;;;;;;;14.77;3.03;;;;;;;9.12;100.00;100055.13;5030754;28;20026;-85
2023/03/31 02:21:37;;;;;;;17.60;4.07;;;;;;;9.17;100.00;100052.41;5024881;28;20389;-86
2023/03/31 02:24:08;;;;;;;17.90;3.50;;;;;;;9.17;100.00;100049.81;5029437;28;20025;-84
2023/03/31 02:26:40;;;;;;;17.25;3.85;;;;;;;9.16;100.00;100038.56;5034174;28;20029;-85
2023/03/31 02:29:05;;;;;;;21.38;3.80;;;;;;;9.16;100.00;100027.31;5033316;28;20017;-85
2023/03/31 02:31:44;;;;;;;16.15;3.55;;;;;;;9.16;100.00;100017.75;5027679;28;20509;-86
2023/03/31 02:34:09;;;;;;;14.30;3.40;;;;;;;9.12;100.00;100009.19;5028775;28;20087;-86
2023/03/31 02:36:35;;;;;;;14.93;3.88;;;;;;;9.15;100.00;100000.41;5032876;28;20033;-85
2023/03/31 02:39:07;;;;;;;14.73;3.30;;;;;;;9.16;100.00;99986.53;5033963;28;20357;-85
2023/03/31 02:41:33;;;;;;;19.77;3.95;;;;;;;9.08;100.00;99963.34;5031047;28;20057;-85
2023/03/31 02:43:58;;;;;;;19.10;3.63;;;;;;;9.12;100.00;99970.19;5024893;28;20504;-84
2023/03/31 02:46:25;;;;;;;19.05;3.60;;;;;;;9.09;100.00;99965.09;5033655;28;20492;-84
2023/03/31 02:48:54;;;;;;;18.98;3.33;;;;;;;9.09;100.00;99959.88;5032845;28;20066;-84
2023/03/31 02:51:44;;;;;;;16.80;3.53;;;;;;;9.14;100.00;99946.72;5033646;28;20481;-84
2023/03/31 02:54:09;;;;;;;24.35;6.07;;;;;;;9.15;100.00;99943.22;5033571;28;20112;-84
2023/03/31 02:57:15;;;;;;;21.45;4.32;;;;;;;9.13;100.00;99932.03;5032473;28;20109;-83
2023/03/31 03:00:19;;;;;;;28.95;4.03;;;;;;;9.11;100.00;99916.47;5033258;28;20118;-83
2023/03/31 03:03:03;;;;;;;;;;;;;;;9.09;100.00;99907.88;5032801;28;20064;-84
2023/03/31 03:05:48;;;;;;;21.63;3.92;;;;;;;9.10;100.00;99908.72;5005690;28;20361;-84
2023/03/31 03:08:28;;;;;;;19.73;4.10;;;;;;;9.09;100.00;99910.47;5019816;28;20088;-83
2023/03/31 03:11:21;;;;;;;25.20;4.07;;;;;;;9.08;100.00;99907.91;5032504;28;20354;-84
2023/03/31 03:13:54;;;;;;;20.25;3.72;;;;;;;9.03;100.00;99905.47;5032925;28;20028;-84
2023/03/31 03:16:34;;;;;;;17.88;3.72;;;;;;;9.06;100.00;99902.78;5033226;28;20029;-86
2023/03/31 03:19:03;;;;;;;20.88;3.47;;;;;;;9.02;100.00;99884.72;5032989;28;20033;-88
2023/03/31 03:21:29;;;;;;;20.27;4.45;;;;;;;9.04;100.00;99883.75;5032963;28;20100;-85
2023/03/31 03:23:55;;;;;;;18.08;3.72;;;;;;;9.06;100.00;99891.53;5032521;28;20438;-86
2023/03/31 03:26:22;;;;;;;22.65;3.72;;;;;;;9.07;100.00;99890.63;5033042;28;20520;-87
2023/03/31 03:28:51;;;;;;;22.83;3.78;;;;;;;8.95;100.00;99872.81;5032655;28;20025;-86
2023/03/31 03:31:17;;;;;;;24.33;3.70;;;;;;;9.04;100.00;99890.72;5032404;28;20124;-85
2023/03/31 03:33:43;;;;;;;21.33;3.72;;;;;;;9.03;100.00;99882.06;5032623;28;20477;-87
2023/03/31 03:36:09;;;;;;;15.48;3.50;;;;;;;9.06;100.00;99881.13;5032986;28;20032;-86
2023/03/31 03:38:35;;;;;;;20.98;3.70;;;;;;;8.99;100.00;99869.19;5031806;28;20104;-89
2023/03/31 03:41:01;;;;;;;24.48;3.63;;;;;;;8.96;100.00;99851.97;5032652;28;20079;-88
2023/03/31 03:43:26;;;;;;;17.70;3.20;;;;;;;8.99;100.00;99851.00;5032462;28;20025;-89
2023/03/31 03:45:52;;;;;;;18.50;3.65;;;;;;;8.97;100.00;99845.03;5031791;28;20120;-87
2023/03/31 03:48:18;;;;;;;18.23;3.20;;;;;;;9.02;100.00;99851.75;5032528;28;20083;-84
2023/03/31 03:50:47;;;;;;;17.23;2.83;;;;;;;9.00;100.00;99835.38;5032482;28;20469;-86
2023/03/31 03:53:13;;;;;;;18.15;2.95;;;;;;;9.00;100.00;99831.94;5031804;28;20022;-87
2023/03/31 03:55:39;;;;;;;20.30;3.20;;;;;;;8.97;100.00;99829.44;5032007;28;20564;-88
2023/03/31 03:58:04;;;;;;;13.73;2.85;;;;;;;8.96;100.00;99815.59;5032706;28;20112;-87
2023/03/31 04:00:30;;;;;;;14.43;3.00;;;;;;;8.87;100.00;99811.53;5032021;28;20051;-88
2023/03/31 04:02:55;;;;;;;12.45;3.08;;;;;;;8.84;100.00;99792.59;5032808;28;20385;-88
2023/03/31 04:05:20;;;;;;;15.60;3.00;;;;;;;8.84;100.00;99787.41;5032644;28;20037;-90
2023/03/31 04:07:46;;;;;;;10.23;2.33;;;;;;;8.82;100.00;99784.81;5031633;28;20112;-88
2023/03/31 04:10:11;;;;;;;12.50;3.50;;;;;;;8.85;100.00;99783.88;5032140;28;20042;-88
2023/03/31 04:12:36;;;;;;;15.18;2.85;;;;;;;8.86;100.00;99769.97;5032401;28;20022;-88
2023/03/31 04:15:03;;;;;;;17.30;3.35;;;;;;;8.87;100.00;99764.75;5031618;28;20021;-88
2023/03/31 04:17:31;;;;;;;13.85;3.30;;;;;;;8.87;100.00;99756.09;5031983;28;20025;-89
2023/03/31 04:20:00;;;;;;;16.30;3.33;;;;;;;8.88;100.00;99757.78;5031955;28;20021;-89
2023/03/31 04:22:28;;;;;;;10.18;2.38;;;;;;;8.80;100.00;99739.03;5032117;28;20378;-89
2023/03/31 04:24:57;;;;;;;16.38;2.53;;;;;;;8.88;100.00;99752.59;5032392;28;20376;-88
2023/03/31 04:27:26;;;;;;;16.17;2.85;;;;;;;8.87;100.00;99730.13;5031523;28;20030;-89
2023/03/31 04:29:53;;;;;;;13.57;2.90;;;;;;;8.86;100.00;99724.06;5019396;28;20025;-88
2023/03/31 04:32:20;;;;;;;17.23;2.90;;;;;;;8.85;100.00;99727.56;5032474;28;20028;-87
2023/03/31 04:34:46;;;;;;;15.13;3.60;;;;;;;8.76;100.00;99711.41;5031482;28;20030;-86
2023/03/31 04:37:12;;;;;;;17.33;2.33;;;;;;;8.71;100.00;99700.34;5021244;28;20049;-88
2023/03/31 04:39:37;;;;;;;10.98;2.28;;;;;;;8.70;100.00;99690.84;5029393;28;20533;-86
2023/03/31 04:42:02;;;;;;;14.82;2.50;;;;;;;8.71;100.00;99692.56;5027421;28;20018;-86
2023/03/31 04:44:28;;;;;;;9.80;2.45;;;;;;;8.75;100.00;99692.38;5027307;28;20079;-88
2023/03/31 04:46:54;;;;;;;14.32;2.38;;;;;;;8.76;100.00;99690.63;5032190;28;20040;-87
2023/03/31 04:49:20;;;;;;;12.18;2.85;;;;;;;8.78;100.00;99678.44;5031666;28;20034;-87
2023/03/31 04:51:45;;;;;;;13.20;2.10;;;;;;;8.74;100.00;99667.31;5031755;28;20477;-89
2023/03/31 04:54:11;;;;;;;10.88;2.60;;;;;;;8.67;100.00;99656.28;5031991;28;20049;-87
2023/03/31 04:56:36;;;;;;;12.98;2.30;;;;;;;8.64;100.00;99651.19;5017466;28;20132;-86
2023/03/31 04:59:05;;;;;;;13.43;2.20;;;;;;;8.71;100.00;99663.97;5032154;28;20060;-86
2023/03/31 05:01:31;;;;;;;11.77;2.65;;;;;;;8.71;100.00;99674.38;5031702;28;20044;-87
2023/03/31 05:03:57;;;;;;;10.32;2.20;;;;;;;8.69;100.00;99664.00;5031229;28;20040;-88
2023/03/31 05:06:22;;;;;;;12.32;2.35;;;;;;;8.67;100.00;99658.88;5034522;28;20116;-89
2023/03/31 05:08:48;;;;;;;12.32;2.38;;;;;;;8.66;100.00;99654.59;5035079;28;20500;-88
2023/03/31 05:11:13;;;;;;;13.73;3.28;;;;;;;8.64;100.00;99646.00;5035092;28;20033;-87
2023/03/31 05:13:38;;;;;;;9.95;2.70;;;;;;;8.52;100.00;99623.03;5035161;28;20136;-89
2023/03/31 05:16:08;;;;;;;10.30;2.85;;;;;;;8.58;100.00;99630.63;5035073;28;20022;-89
2023/03/31 05:18:34;;;;;;;11.68;2.40;;;;;;;8.48;100.00;99612.81;5035351;28;20026;-86
2023/03/31 05:21:17;;;;;;;8.02;2.42;;;;;;;8.54;100.00;99613.44;5031433;28;20029;-86
2023/03/31 05:23:43;;;;;;;10.63;2.67;;;;;;;8.55;100.00;99615.13;5027158;28;20018;-89
2023/03/31 05:26:09;;;;;;;9.75;2.40;;;;;;;8.51;100.00;99608.34;5035368;28;20032;-88
2023/03/31 05:28:35;;;;;;;9.38;2.70;;;;;;;8.53;100.00;99611.72;5035308;28;20026;-88
2023/03/31 05:31:02;;;;;;;9.60;2.42;;;;;;;8.54;100.00;99604.81;5020363;28;20505;-88
2023/03/31 05:33:28;;;;;;;14.32;3.10;;;;;;;8.53;100.00;99601.34;5035106;28;20025;-88
2023/03/31 05:35:53;;;;;;;9.40;2.83;;;;;;;8.50;100.00;99585.00;5035242;28;20492;-88
2023/03/31 05:38:20;;;;;;;11.77;2.60;;;;;;;8.56;100.00;99596.03;5028350;28;20014;-89
2023/03/31 05:40:45;;;;;;;10.85;3.03;;;;;;;8.53;100.00;99590.94;5027767;28;20033;-88
2023/03/31 05:43:11;;;;;;;11.43;2.70;;;;;;;8.56;100.00;99600.38;5022244;28;20029;-89
2023/03/31 05:45:36;;;;;;;10.93;2.67;;;;;;;8.60;100.00;99605.44;5024391;28;20022;-89
2023/03/31 05:48:02;;;;;;;10.68;2.72;;;;;;;8.61;100.00;99593.28;5034892;28;20037;-88
2023/03/31 05:50:27;;;;;;;8.93;3.30;;;;;;;8.55;100.00;99589.16;5034866;28;20043;-87
2023/03/31 05:52:52;;;;;;;8.60;2.55;;;;;;;8.57;100.00;99582.16;5034122;28;20049;-83
2023/03/31 05:55:18;;;;;;;19.25;2.78;;;;;;;8.60;100.00;99588.97;5028745;28;20053;-83
2023/03/31 05:57:43;;;;;;;11.68;2.38;;;;;;;8.59;100.00;99575.16;5026814;28;20104;-83
2023/03/31 06:00:10;;;;;;;12.45;2.70;;;;;;;8.63;100.00;99581.09;5033985;28;20021;-81
2023/03/31 06:02:36;;;;;;;11.00;2.30;;;;;;;8.64;100.00;99573.25;5034076;28;20389;-82
2023/03/31 06:05:01;;;;;;;10.90;3.00;;;;;;;8.59;100.00;99541.38;5034292;28;20056;-83
2023/03/31 06:07:27;;;;;;;9.20;2.70;;;;;;;8.64;100.00;99562.00;5034212;28;20026;-81
2023/03/31 06:09:52;;;;;;;14.00;3.58;;;;;;;8.64;100.00;99565.47;5033902;28;20558;-82
2023/03/31 06:12:17;;;;;;;16.08;3.25;;;;;;;8.64;100.00;99554.22;5020392;28;20091;-81
2023/03/31 06:14:43;;;;;;;12.77;3.90;;;;;;;8.56;100.00;99527.66;5034170;28;20021;-81
2023/03/31 06:17:08;;;;;;;10.45;3.00;;;;;;;8.64;100.00;99523.88;5033465;28;20030;-81
2023/03/31 06:19:33;;;;;;;12.80;3.00;;;;;;;8.67;100.00;99535.94;5027466;28;20469;-81
2023/03/31 06:21:59;;;;;;;12.77;4.03;;;;;;;8.63;100.00;99531.72;5026736;28;20044;-81
2023/03/31 06:24:24;;;;;;;8.98;3.38;;;;;;;8.61;100.00;99524.00;5034196;28;20513;-83
2023/03/31 06:26:49;;;;;;;10.88;3.25;;;;;;;8.65;100.00;99522.97;5032932;28;20071;-82
2023/03/31 06:29:15;;;;;;;15.00;3.10;;;;;;;8.60;100.00;99511.91;5034058;28;20034;-82
2023/03/31 06:31:40;;;;;;;10.75;3.42;;;;;;;8.67;100.00;99520.34;5033943;28;20057;-82
2023/03/31 06:34:05;;;;;;;17.38;3.15;;;;;;;8.66;100.00;99516.91;5033487;28;20385;-81
2023/03/31 06:36:31;;;;;;;18.20;2.95;;;;;;;8.70;100.00;99527.16;5033590;28;20029;-81
2023/03/31 06:38:56;;;;;;;15.95;3.47;;;;;;;8.64;100.00;99518.69;5022646;28;20029;-81
2023/03/31 06:41:21;;;;;;;17.17;3.92;;;;;;;8.68;100.00;99509.88;5030666;28;20064;-81
2023/03/31 06:43:47;;;;;;;17.42;3.28;;;;;;;8.67;100.00;99510.78;5025821;28;20033;-82
2023/03/31 06:46:12;;;;;;;10.52;3.63;;;;;;;8.74;100.00;99516.59;5033934;28;20025;-82
2023/03/31 06:48:38;;;;;;;16.35;3.35;;;;;;;8.73;100.00;99514.03;5033094;28;20021;-82
2023/03/31 06:51:05;;;;;;;13.85;3.35;;;;;;;8.79;100.00;99521.63;5033755;28;20026;-82
2023/03/31 06:53:31;;;;;;;18.90;4.00;;;;;;;8.77;100.00;99510.44;5033544;28;20033;-82
2023/03/31 06:55:56;;;;;;;20.70;4.05;;;;;;;8.82;100.00;99521.50;5033224;28;20027;-81
2023/03/31 06:58:22;;;;;;;17.98;4.28;;;;;;;8.78;100.00;99505.19;5033775;28;20024;-81
2023/03/31 07:00:47;;;;;;;20.60;5.32;;;;;;;8.80;100.00;99518.13;5033548;28;20025;-81
2023/03/31 07:03:17;;;;;;;21.73;4.10;;;;;;;8.84;100.00;99522.31;5032837;28;20034;-81
2023/03/31 07:05:47;;;;;;;17.42;4.32;;;;;;;8.83;100.00;99500.69;5033487;28;20025;-82
2023/03/31 07:08:12;;;;;;;21.10;4.63;;;;;;;8.75;100.00;99491.47;5032815;28;20108;-81
2023/03/31 07:10:38;;;;;;;16.70;4.93;;;;;;;8.85;100.00;99524.84;5012943;28;20442;-80
2023/03/31 07:13:03;;;;;;;23.55;4.80;;;;;;;8.86;100.00;99497.97;5013377;28;20088;-80
2023/03/31 07:15:29;;;;;;;22.33;4.60;;;;;;;8.82;100.00;99488.56;5026981;28;20032;-80
2023/03/31 07:18:00;;;;;;;20.48;4.70;;;;;;;8.93;100.00;99501.19;5012488;28;20094;-81
2023/03/31 07:20:27;;;;;;;21.38;5.30;;;;;;;8.93;100.00;99506.38;5026641;28;20469;-80
2023/03/31 07:22:52;;;;;;;22.10;4.30;;;;;;;8.96;100.00;99494.97;5013046;28;20374;-82
2023/03/31 07:25:19;;;;;;;14.18;4.13;;;;;;;8.96;100.00;99490.66;5024674;28;20504;-81
2023/03/31 07:27:45;;;;;;;10.68;3.45;;;;;;;8.94;100.00;99489.03;5015587;28;20025;-80
2023/03/31 07:30:16;;;;;;;7.80;2.97;;;;;;;8.93;100.00;99476.91;5012610;28;20030;-81
2023/03/31 07:32:42;;;;;;;9.95;3.35;;;;;;;8.86;100.00;99490.16;5027054;28;20029;-82
2023/03/31 07:35:10;;;;;;;11.60;2.33;;;;;;;8.82;100.00;99482.53;5013368;28;20068;-81
2023/03/31 07:37:36;;;;;;;7.75;2.17;;;;;;;8.81;100.00;99486.88;5026609;28;20025;-80
2023/03/31 07:40:04;;;;;;;12.40;2.60;;;;;;;8.85;100.00;99477.22;5026559;28;20018;-81
2023/03/31 07:42:29;;;;;;;13.82;2.65;;;;;;;8.88;100.00;99472.75;5020208;28;20047;-81
2023/03/31 07:44:55;;;;;;;10.50;2.63;;;;;;;8.98;100.00;99467.19;5017123;28;20402;-81
2023/03/31 07:47:20;;;;;;;10.82;3.00;;;;;;;9.12;100.00;99481.38;5022458;28;20080;-81
2023/03/31 07:49:47;;;;;;;13.38;4.05;;;;;;;9.23;100.00;99473.13;5015561;28;20386;-80
2023/03/31 07:52:12;;;;;;;19.67;4.30;;;;;;;9.29;100.00;99478.09;5548701;22;20087;-81
2023/03/31 07:54:37;;;;;;;17.52;4.80;;;;;;;9.41;100.00;99471.53;5018556;28;20084;-80
2023/03/31 07:57:04;;;;;;;27.02;5.15;;;;;;;9.47;100.00;99454.84;5032668;28;20018;-81
2023/03/31 07:59:30;;;;;;;18.55;4.70;;;;;;;9.57;100.00;99451.78;5031897;28;20112;-82
2023/03/31 08:01:56;;;;;;;20.80;4.90;;;;;;;9.67;100.00;99465.25;5046465;28;20111;-83
2023/03/31 08:04:23;;;;;;;24.20;4.95;;;;;;;9.77;100.00;99457.91;5032666;28;20037;-83
2023/03/31 08:06:50;;;;;;;22.00;5.28;;;;;;;9.85;100.00;99461.91;5034664;28;20384;-83
2023/03/31 08:09:17;;;;;;;21.45;5.80;;;;;;;9.97;100.00;99452.72;5043115;28;20116;-84
2023/03/31 08:11:43;;;;;;;22.08;5.20;;;;;;;10.02;100.00;99449.91;5032235;28;20029;-83
2023/03/31 08:14:08;;;;;;;20.80;4.85;;;;;;;10.02;100.00;99447.31;5031414;28;20025;-83
2023/03/31 08:16:34;;;;;;;20.20;5.13;;;;;;;10.04;100.00;99448.94;5032016;28;20026;-84
2023/03/31 08:19:00;;;;;;;21.13;5.45;;;;;;;10.17;100.00;99443.19;5018332;28;20022;-84
2023/03/31 08:21:27;;;;;;;19.42;5.60;;;;;;;10.17;100.00;99438.84;5039909;28;20041;-83
2023/03/31 08:23:54;;;;;;;19.42;5.15;;;;;;;10.23;100.00;99435.09;5038757;28;20034;-84
2023/03/31 08:26:25;;;;;;;23.85;4.95;;;;;;;9.85;100.00;99367.34;5092192;23;20050;-85
2023/03/31 08:28:53;;;;;;;19.95;5.05;;;;;;;9.91;100.00;99387.91;4992994;28;20023;-84
2023/03/31 08:34:54;;;;;;;20.80;4.95;;;;;;;10.23;100.00;99416.88;4949804;28;20073;-84
2023/03/31 08:37:19;;;;;;;21.25;4.45;;;;;;;10.38;100.00;99425.81;4952063;28;20034;-84
2023/03/31 08:39:44;;;;;;;23.98;4.63;;;;;;;10.39;100.00;99445.72;4987281;28;20469;-84
2023/03/31 08:42:14;;;;;;;22.50;4.32;;;;;;;10.33;100.00;99439.00;4995892;28;20542;-84
2023/03/31 08:45:05;;;;;;;24.10;4.82;;;;;;;10.37;100.00;99442.34;4999236;28;20040;-84
2023/03/31 08:47:34;;;;;;;21.25;4.43;;;;;;;10.40;100.00;99450.88;5003391;28;20530;-84
2023/03/31 08:50:09;;;;;;;23.80;5.10;;;;;;;10.32;100.00;99437.34;5001156;28;20010;-84
2023/03/31 08:52:59;;;;;;;25.75;4.80;;;;;;;10.37;100.00;99442.34;5004335;28;20478;-83
2023/03/31 09:00:25;;;;;;;26.25;4.88;;;;;;;10.54;100.00;99434.63;5095509;23;20528;-84
2023/03/31 09:03:16;;;;;;;20.42;4.20;;;;;;;10.50;100.00;99433.91;5047244;28;20021;-83
2023/03/31 09:05:47;;;;;;;16.73;5.20;;;;;;;10.59;100.00;99437.00;5023570;28;20546;-83
2023/03/31 09:08:34;;;;;;;26.63;5.63;;;;;;;10.79;100.00;99431.72;5034723;28;20053;-84
2023/03/31 09:11:13;;;;;;;20.75;4.90;;;;;;;10.76;100.00;99426.66;5035968;28;20025;-85
2023/03/31 09:13:47;;;;;;;17.75;4.22;;;;;;;10.71;100.00;99428.63;5035379;28;20017;-84
2023/03/31 09:16:34;;;;;;;24.00;3.85;;;;;;;10.74;100.00;99431.09;5034757;28;20033;-83
2023/03/31 09:19:00;;;;;;;16.50;3.67;;;;;;;10.66;100.00;99422.75;5035262;28;20029;-84
2023/03/31 09:21:47;;;;;;;23.13;5.05;;;;;;;10.69;100.00;99417.41;5035289;28;20021;-83
2023/03/31 09:24:35;;;;;;;16.08;4.30;;;;;;;10.60;100.00;99420.47;5034738;28;20064;-82
2023/03/31 09:27:04;;;;;;;18.90;5.03;;;;;;;10.45;100.00;99403.75;5035110;28;20033;-83
2023/03/31 09:29:43;;;;;;;23.42;3.88;;;;;;;10.47;100.00;99400.19;5034071;28;20021;-84
2023/03/31 09:32:27;;;;;;;21.80;4.18;;;;;;;10.52;100.00;99405.16;5035208;28;20032;-84
2023/03/31 09:34:59;;;;;;;23.15;4.50;;;;;;;10.55;100.00;99398.03;5021400;28;20021;-83
2023/03/31 09:37:29;;;;;;;18.65;3.97;;;;;;;10.57;100.00;99394.53;5034129;28;20040;-83
2023/03/31 09:40:06;;;;;;;15.45;3.53;;;;;;;10.65;100.00;99400.22;5035208;28;20381;-84
2023/03/31 09:47:41;;;;;;;13.13;3.60;;;;;;;11.29;100.00;99399.75;6014796;23;20034;-83
2023/03/31 09:50:09;;;;;;;13.73;3.15;;;;;;;11.39;100.00;99397.53;5035096;28;20039;-84
2023/03/31 09:52:39;;;;;;;13.52;3.10;;;;;;;11.47;100.00;99388.38;5034116;28;20032;-83
2023/03/31 10:06:08;;;;;;;16.70;3.53;;;;;;;11.54;100.00;99301.97;5034008;28;20055;-84
2023/03/31 10:15:29;;;;;;;12.65;2.97;;;;;;;11.08;100.00;99328.59;4948118;28;20054;-84
2023/03/31 10:21:25;;;;;;;11.25;2.65;;;;;;;11.25;100.00;99354.72;5020709;28;20171;-83
2023/03/31 10:24:01;;;;;;;9.82;2.40;;;;;;;11.35;100.00;99349.88;5032986;28;20034;-83
2023/03/31 10:58:14;;;;;;;12.35;2.75;;;;;;;12.30;100.00;99331.88;4944192;28;20058;-84
2023/03/31 11:17:26;;;;;;;16.02;3.38;;;;;;;10.51;100.00;99333.97;5193624;23;20433;-84
2023/03/31 11:20:04;;;;;;;14.18;2.95;;;;;;;10.70;100.00;99339.16;5033214;28;20032;-84
2023/03/31 11:22:51;;;;;;;15.65;3.45;;;;;;;11.07;100.00;99326.09;5032321;28;20036;-84
2023/03/31 11:25:28;;;;;;;21.83;4.35;;;;;;;11.24;100.00;99326.91;5033031;28;20523;-84
2023/03/31 11:28:11;;;;;;;17.25;3.45;;;;;;;11.32;100.00;99323.94;5032919;28;20052;-84
2023/03/31 11:30:43;;;;;;;19.75;3.33;;;;;;;11.29;100.00;99313.66;5032040;28;20029;-84
2023/03/31 11:33:20;;;;;;;14.80;4.13;;;;;;;11.38;100.00;99312.34;5033000;28;20104;-84
2023/03/31 11:36:24;;;;;;;18.83;3.60;;;;;;;11.38;100.00;99314.94;5032502;28;20053;-84
2023/03/31 11:39:12;;;;;;;14.38;3.50;;;;;;;11.37;100.00;99314.09;5023823;28;20041;-84
2023/03/31 11:41:47;;;;;;;10.45;2.97;;;;;;;11.29;100.00;99298.00;5032606;28;20067;-84
2023/03/31 11:44:15;;;;;;;11.75;3.05;;;;;;;11.25;100.00;99309.53;5032162;28;20079;-84
2023/03/31 11:47:00;;;;;;;15.43;3.60;;;;;;;11.21;100.00;99289.72;5032612;28;20018;-84
2023/03/31 11:49:27;;;;;;;13.23;2.88;;;;;;;11.44;100.00;99302.47;5032919;28;20037;-84
2023/03/31 11:52:01;;;;;;;10.70;3.03;;;;;;;11.72;100.00;99295.78;5018261;28;20025;-84
2023/03/31 11:54:37;;;;;;;11.48;2.75;;;;;;;12.16;100.00;99285.59;5032998;28;20030;-85
2023/03/31 11:57:15;;;;;;;12.93;2.97;;;;;;;12.33;100.00;99266.38;5018573;28;20026;-84
2023/03/31 11:59:42;;;;;;;12.50;3.08;;;;;;;12.40;100.00;99290.41;5032569;28;20026;-85
2023/03/31 12:02:18;;;;;;;13.07;2.55;;;;;;;12.38;100.00;99285.25;5032862;28;20112;-84
2023/03/31 12:04:48;;;;;;;15.10;3.15;;;;;;;12.52;100.00;99268.78;5031750;28;20116;-84
2023/03/31 12:07:31;;;;;;;9.18;2.83;;;;;;;12.58;100.00;99270.22;5019203;28;20381;-84
2023/03/31 12:35:01;;;;;;;11.10;2.45;;;;;;;13.18;100.00;99196.97;5021062;28;20080;-84
2023/03/31 12:40:56;;;;;;;10.38;2.55;;;;;;;13.97;99.45;99222.66;5016293;28;20276;-83
2023/03/31 12:44:02;;;;;;;11.07;2.05;;;;;;;13.80;97.07;99234.19;5011991;28;20103;-83
2023/03/31 13:17:25;;;;;;;10.80;2.17;;;;;;;11.25;100.00;99223.44;6009984;23;20009;-84
2023/03/31 13:30:40;;;;;;;6.72;2.30;;;;;;;11.81;100.00;99211.75;5027546;23;20787;-84
2023/03/31 13:33:12;;;;;;;6.70;1.75;;;;;;;12.00;100.00;99208.16;5000946;28;20386;-84
2023/03/31 13:40:59;;;;;;;4.40;1.63;;;;;;;11.89;100.00;99208.75;4994042;28;20051;-84
2023/03/31 13:43:35;;;;;;;7.57;1.65;;;;;;;12.20;100.00;99220.97;4984172;28;20030;-83
2023/03/31 13:46:25;;;;;;;6.72;2.15;;;;;;;12.23;100.00;99215.56;4995838;28;20129;-84
2023/03/31 13:49:12;;;;;;;7.72;2.10;;;;;;;11.87;100.00;99214.06;4994147;28;20038;-83
2023/03/31 13:51:58;;;;;;;6.63;1.77;;;;;;;11.64;100.00;99202.22;5010425;28;20033;-84
2023/03/31 13:54:44;;;;;;;6.63;2.58;;;;;;;11.56;100.00;99208.78;4995611;28;20038;-83
2023/03/31 13:57:47;;;;;;;8.43;2.00;;;;;;;11.25;100.00;99213.00;4983124;28;20375;-84
2023/03/31 14:00:28;;;;;;;7.32;2.20;;;;;;;11.07;100.00;99217.41;4995352;28;20034;-84
2023/03/31 14:03:12;;;;;;;9.05;2.53;;;;;;;11.04;100.00;99201.91;5007906;28;20026;-84
2023/03/31 14:05:58;;;;;;;8.45;2.38;;;;;;;10.97;100.00;99208.38;4989348;28;20038;-85
2023/03/31 14:08:32;;;;;;;11.55;2.35;;;;;;;10.78;100.00;99214.50;5015224;28;20495;-85
2023/03/31 14:11:24;;;;;;;11.13;2.03;;;;;;;10.71;100.00;99209.69;5014263;28;20050;-86
2023/03/31 14:14:16;;;;;;;8.70;1.73;;;;;;;10.71;100.00;99207.06;5014799;28;20029;-86
2023/03/31 14:16:49;;;;;;;7.60;1.80;;;;;;;10.97;100.00;99208.38;5000246;28;20026;-86
2023/03/31 14:19:40;;;;;;;6.82;1.52;;;;;;;11.11;100.00;99205.03;4994245;28;20030;-85
2023/03/31 14:22:30;;;;;;;8.50;1.95;;;;;;;11.08;100.00;99199.97;4995103;28;20030;-85